AQQ10 IFIS: Internet Flight Information System
logo dgac
Lunes 27 de Septiembre del 2021
Buscar por aerodromo o helipuerto
Ingrese nombre de aeródromo, localidad o designador OACI:
METAR del 27-09-2021 a las 01:00 UTC
Para mayor información visite www.meteochile.cl
METAR SCCF 270100Z AUTO 30005KT 270V340 9999 NCD 18/M19 Q1028
Viento: dirección 300 grados, velocidad 5 nudos
Viento con dirección variable entre 270 y 340 grados
Visibilidad: 10 km o más
Temperatura: 18 °C
Rocío: -19 °C
Humedad_relativa: 7%
Presión: 1028 hPa
SPECI del 27-09-2021 a las 00:25 UTC
Para mayor información visite www.meteochile.cl
SPECI SCCF 270025Z AUTO 25003KT 140V310 9999 NCD 17/M17 Q1027
Viento: dirección 250 grados, velocidad 3 nudos
Viento con dirección variable entre 140 y 310 grados
Visibilidad: 10 km o más
Temperatura: 17 °C
Rocío: -17 °C
Humedad_relativa: 8%
Presión: 1027 hPa
METAR del 27-09-2021 a las 00:00 UTC
Para mayor información visite www.meteochile.cl
METAR SCCF 270000Z AUTO 29013KT 9999 NCD 20/M17 Q1027
Viento: dirección 290 grados, velocidad 13 nudos
Visibilidad: 10 km o más
Temperatura: 20 °C
Rocío: -17 °C
Humedad_relativa: 7%
Presión: 1027 hPa
SPECI del 26-09-2021 a las 23:23 UTC
Para mayor información visite www.meteochile.cl
SPECI SCCF 262323Z AUTO 28014KT 9999 NCD 20/M17 Q1026
Viento: dirección 280 grados, velocidad 14 nudos
Visibilidad: 10 km o más
Temperatura: 20 °C
Rocío: -17 °C
Humedad_relativa: 7%
Presión: 1026 hPa
SPECI del 26-09-2021 a las 23:07 UTC
Para mayor información visite www.meteochile.cl
SPECI SCCF 262307Z AUTO 29024KT 9999 NCD 22/M14 Q1026
Viento: dirección 290 grados, velocidad 24 nudos
Visibilidad: 10 km o más
Temperatura: 22 °C
Rocío: -14 °C
Humedad_relativa: 8%
Presión: 1026 hPa
SPECI del 26-09-2021 a las 23:01 UTC
Para mayor información visite www.meteochile.cl
SPECI SCCF 262301Z AUTO 27018G32KT 9999 NCD 21/M14 Q1026
Viento: dirección 270 grados, velocidad 18 nudos, con ráfagas de velocidad máxima de 32Nudos
Visibilidad: 10 km o más
Temperatura: 21 °C
Rocío: -14 °C
Humedad_relativa: 8%
Presión: 1026 hPa
METAR del 26-09-2021 a las 23:00 UTC
Para mayor información visite www.meteochile.cl
METAR SCCF 262300Z AUTO 26016KT 9999 NCD 22/M17 Q1026
Viento: dirección 260 grados, velocidad 16 nudos
Visibilidad: 10 km o más
Temperatura: 22 °C
Rocío: -17 °C
Humedad_relativa: 6%
Presión: 1026 hPa
METAR del 26-09-2021 a las 22:00 UTC
Para mayor información visite www.meteochile.cl
METAR SCCF 262200Z AUTO 24021KT 9999 NCD 25/M20 Q1025
Viento: dirección 240 grados, velocidad 21 nudos
Visibilidad: 10 km o más
Temperatura: 25 °C
Rocío: -20 °C
Humedad_relativa: 4%
Presión: 1025 hPa
METAR del 26-09-2021 a las 21:00 UTC
Para mayor información visite www.meteochile.cl
METAR SCCF 262100Z AUTO 24021KT 9999 NCD 27/M18 Q1024
Viento: dirección 240 grados, velocidad 21 nudos
Visibilidad: 10 km o más
Temperatura: 27 °C
Rocío: -18 °C
Humedad_relativa: 4%
Presión: 1024 hPa
SPECI del 26-09-2021 a las 20:55 UTC
Para mayor información visite www.meteochile.cl
SPECI SCCF 262055Z AUTO 24021KT 9999 NCD 27/M18 Q1024
Viento: dirección 240 grados, velocidad 21 nudos
Visibilidad: 10 km o más
Temperatura: 27 °C
Rocío: -18 °C
Humedad_relativa: 4%
Presión: 1024 hPa